Terminal Aerodrome Forecast
Issued by NWS

Home | Current Version | Previous Version | Text Only | Print | Product List | Glossary On
Versions: 1 2 3 4 5 6 7 8 9 10 11 12 13 14 15 16 17
000
FTUS46 KSGX 211100
TAFSNA
TAF
KSNA 211137Z 2112/2212 VRB04KT P6SM OVC016
     FM211600 VRB04KT P6SM SCT020 SCT100
     FM211800 22009KT P6SM FEW100
     FM220300 VRB04KT P6SM SCT012
     FM220700 VRB03KT P6SM BKN015=

USA.gov is the U.S. government's official web portal to all federal, state and local government web resources and services.